sensor_id;sensor_type;location;lat;lon;timestamp;P1;durP1;ratioP1;P2;durP2;ratioP2
6475;SDS011;3271;51.910;5.840;2022-07-22T00:00:03;6.40;;;2.42;;
6475;SDS011;3271;51.910;5.840;2022-07-22T00:02:30;6.88;;;2.45;;
6475;SDS011;3271;51.910;5.840;2022-07-22T00:04:56;8.00;;;2.47;;
6475;SDS011;3271;51.910;5.840;2022-07-22T00:07:22;6.10;;;2.15;;
6475;SDS011;3271;51.910;5.840;2022-07-22T00:09:47;3.55;;;2.05;;
6475;SDS011;3271;51.910;5.840;2022-07-22T00:12:13;5.15;;;2.22;;
6475;SDS011;3271;51.910;5.840;2022-07-22T00:17:38;7.53;;;2.65;;
6475;SDS011;3271;51.910;5.840;2022-07-22T00:20:05;7.90;;;2.20;;
6475;SDS011;3271;51.910;5.840;2022-07-22T00:22:31;5.38;;;2.08;;
6475;SDS011;3271;51.910;5.840;2022-07-22T00:24:57;4.18;;;1.73;;
6475;SDS011;3271;51.910;5.840;2022-07-22T00:27:23;6.00;;;1.80;;
6475;SDS011;3271;51.910;5.840;2022-07-22T00:29:49;4.72;;;1.98;;
6475;SDS011;3271;51.910;5.840;2022-07-22T00:32:15;5.47;;;1.85;;
6475;SDS011;3271;51.910;5.840;2022-07-22T00:34:41;6.68;;;2.20;;
6475;SDS011;3271;51.910;5.840;2022-07-22T00:37:07;5.10;;;2.33;;
6475;SDS011;3271;51.910;5.840;2022-07-22T00:39:34;7.07;;;2.17;;
6475;SDS011;3271;51.910;5.840;2022-07-22T00:42:00;5.40;;;1.90;;
6475;SDS011;3271;51.910;5.840;2022-07-22T00:44:26;6.07;;;2.08;;
6475;SDS011;3271;51.910;5.840;2022-07-22T00:46:52;6.45;;;2.28;;
6475;SDS011;3271;51.910;5.840;2022-07-22T00:49:23;6.47;;;2.10;;
6475;SDS011;3271;51.910;5.840;2022-07-22T00:54:50;3.95;;;2.00;;
6475;SDS011;3271;51.910;5.840;2022-07-22T00:57:16;7.07;;;2.40;;
6475;SDS011;3271;51.910;5.840;2022-07-22T00:59:42;5.97;;;2.38;;
6475;SDS011;3271;51.910;5.840;2022-07-22T01:02:08;6.20;;;2.70;;
6475;SDS011;3271;51.910;5.840;2022-07-22T01:04:34;7.75;;;2.35;;
6475;SDS011;3271;51.910;5.840;2022-07-22T01:07:01;3.83;;;2.22;;
6475;SDS011;3271;51.910;5.840;2022-07-22T01:09:27;6.05;;;2.30;;
6475;SDS011;3271;51.910;5.840;2022-07-22T01:11:53;6.68;;;2.30;;
6475;SDS011;3271;51.910;5.840;2022-07-22T01:14:19;6.22;;;2.03;;
6475;SDS011;3271;51.910;5.840;2022-07-22T01:16:45;3.33;;;1.95;;
6475;SDS011;3271;51.910;5.840;2022-07-22T01:19:11;5.28;;;2.17;;
6475;SDS011;3271;51.910;5.840;2022-07-22T01:21:37;5.68;;;2.42;;
6475;SDS011;3271;51.910;5.840;2022-07-22T01:24:04;3.30;;;1.73;;
6475;SDS011;3271;51.910;5.840;2022-07-22T01:26:30;7.65;;;2.17;;
6475;SDS011;3271;51.910;5.840;2022-07-22T01:28:58;5.82;;;2.67;;
6475;SDS011;3271;51.910;5.840;2022-07-22T01:31:24;8.27;;;2.15;;
6475;SDS011;3271;51.910;5.840;2022-07-22T01:36:53;4.85;;;2.65;;
6475;SDS011;3271;51.910;5.840;2022-07-22T01:39:19;4.60;;;2.30;;
6475;SDS011;3271;51.910;5.840;2022-07-22T01:41:45;7.07;;;1.92;;
6475;SDS011;3271;51.910;5.840;2022-07-22T01:44:11;5.30;;;2.22;;
6475;SDS011;3271;51.910;5.840;2022-07-22T01:46:37;7.97;;;2.35;;
6475;SDS011;3271;51.910;5.840;2022-07-22T01:49:03;6.55;;;2.47;;
6475;SDS011;3271;51.910;5.840;2022-07-22T01:51:29;5.15;;;2.35;;
6475;SDS011;3271;51.910;5.840;2022-07-22T01:53:55;5.90;;;2.22;;
6475;SDS011;3271;51.910;5.840;2022-07-22T01:56:21;7.15;;;2.35;;
6475;SDS011;3271;51.910;5.840;2022-07-22T01:58:47;7.65;;;2.83;;
6475;SDS011;3271;51.910;5.840;2022-07-22T02:01:13;6.72;;;2.97;;
6475;SDS011;3271;51.910;5.840;2022-07-22T02:03:39;6.22;;;2.35;;
6475;SDS011;3271;51.910;5.840;2022-07-22T02:06:05;5.57;;;2.35;;
6475;SDS011;3271;51.910;5.840;2022-07-22T02:08:31;5.07;;;2.55;;
6475;SDS011;3271;51.910;5.840;2022-07-22T02:10:57;9.13;;;2.88;;
6475;SDS011;3271;51.910;5.840;2022-07-22T02:13:23;5.60;;;2.22;;
6475;SDS011;3271;51.910;5.840;2022-07-22T02:15:48;6.82;;;2.80;;
6475;SDS011;3271;51.910;5.840;2022-07-22T02:18:16;7.00;;;3.10;;
6475;SDS011;3271;51.910;5.840;2022-07-22T02:20:42;6.22;;;2.30;;
6475;SDS011;3271;51.910;5.840;2022-07-22T02:23:08;7.82;;;2.60;;
6475;SDS011;3271;51.910;5.840;2022-07-22T02:25:36;6.13;;;2.22;;
6475;SDS011;3271;51.910;5.840;2022-07-22T02:28:02;6.28;;;2.67;;
6475;SDS011;3271;51.910;5.840;2022-07-22T02:33:30;7.57;;;2.58;;
6475;SDS011;3271;51.910;5.840;2022-07-22T02:35:56;3.45;;;2.33;;
6475;SDS011;3271;51.910;5.840;2022-07-22T02:38:22;4.97;;;2.25;;
6475;SDS011;3271;51.910;5.840;2022-07-22T02:40:48;8.40;;;2.67;;
6475;SDS011;3271;51.910;5.840;2022-07-22T02:43:14;6.53;;;2.55;;
6475;SDS011;3271;51.910;5.840;2022-07-22T02:45:40;9.00;;;2.30;;
6475;SDS011;3271;51.910;5.840;2022-07-22T02:48:06;5.60;;;2.70;;
6475;SDS011;3271;51.910;5.840;2022-07-22T02:56:29;4.30;;;2.50;;
6475;SDS011;3271;51.910;5.840;2022-07-22T02:58:55;6.28;;;2.50;;
6475;SDS011;3271;51.910;5.840;2022-07-22T03:01:21;7.30;;;2.30;;
6475;SDS011;3271;51.910;5.840;2022-07-22T03:03:46;6.05;;;2.47;;
6475;SDS011;3271;51.910;5.840;2022-07-22T03:06:12;4.10;;;2.20;;
6475;SDS011;3271;51.910;5.840;2022-07-22T03:08:38;4.50;;;2.22;;
6475;SDS011;3271;51.910;5.840;2022-07-22T03:11:05;5.47;;;2.30;;
6475;SDS011;3271;51.910;5.840;2022-07-22T03:13:31;4.50;;;2.25;;
6475;SDS011;3271;51.910;5.840;2022-07-22T03:15:57;3.75;;;2.40;;
6475;SDS011;3271;51.910;5.840;2022-07-22T03:18:23;4.88;;;2.00;;
6475;SDS011;3271;51.910;5.840;2022-07-22T03:20:49;6.95;;;2.53;;
6475;SDS011;3271;51.910;5.840;2022-07-22T03:23:15;6.90;;;3.10;;
6475;SDS011;3271;51.910;5.840;2022-07-22T03:25:41;4.90;;;2.90;;
6475;SDS011;3271;51.910;5.840;2022-07-22T03:28:07;6.47;;;2.95;;
6475;SDS011;3271;51.910;5.840;2022-07-22T03:30:33;6.60;;;3.20;;
6475;SDS011;3271;51.910;5.840;2022-07-22T03:32:59;8.25;;;2.50;;
6475;SDS011;3271;51.910;5.840;2022-07-22T03:35:25;3.53;;;2.00;;
6475;SDS011;3271;51.910;5.840;2022-07-22T03:37:51;3.90;;;2.30;;
6475;SDS011;3271;51.910;5.840;2022-07-22T03:40:17;5.57;;;2.70;;
6475;SDS011;3271;51.910;5.840;2022-07-22T03:42:43;5.03;;;2.00;;
6475;SDS011;3271;51.910;5.840;2022-07-22T03:45:09;3.80;;;1.92;;
6475;SDS011;3271;51.910;5.840;2022-07-22T03:47:44;5.13;;;2.15;;
6475;SDS011;3271;51.910;5.840;2022-07-22T03:53:14;4.53;;;2.28;;
6475;SDS011;3271;51.910;5.840;2022-07-22T03:55:40;4.03;;;2.22;;
6475;SDS011;3271;51.910;5.840;2022-07-22T03:58:06;5.80;;;2.53;;
6475;SDS011;3271;51.910;5.840;2022-07-22T04:00:32;5.80;;;2.67;;
6475;SDS011;3271;51.910;5.840;2022-07-22T04:02:57;5.90;;;1.92;;
6475;SDS011;3271;51.910;5.840;2022-07-22T04:05:23;3.33;;;2.38;;
6475;SDS011;3271;51.910;5.840;2022-07-22T04:07:49;4.90;;;2.10;;
6475;SDS011;3271;51.910;5.840;2022-07-22T04:10:15;4.57;;;2.42;;
6475;SDS011;3271;51.910;5.840;2022-07-22T04:12:41;4.13;;;2.50;;
6475;SDS011;3271;51.910;5.840;2022-07-22T04:15:08;5.13;;;2.28;;
6475;SDS011;3271;51.910;5.840;2022-07-22T04:17:34;4.63;;;2.15;;
6475;SDS011;3271;51.910;5.840;2022-07-22T04:20:00;5.10;;;2.30;;
6475;SDS011;3271;51.910;5.840;2022-07-22T04:22:26;5.22;;;2.13;;
6475;SDS011;3271;51.910;5.840;2022-07-22T04:24:52;4.80;;;2.42;;
6475;SDS011;3271;51.910;5.840;2022-07-22T04:27:18;5.75;;;2.30;;
6475;SDS011;3271;51.910;5.840;2022-07-22T04:29:44;4.22;;;2.47;;
6475;SDS011;3271;51.910;5.840;2022-07-22T04:32:10;3.75;;;2.22;;
6475;SDS011;3271;51.910;5.840;2022-07-22T04:34:36;5.90;;;2.40;;
6475;SDS011;3271;51.910;5.840;2022-07-22T04:37:02;4.43;;;2.33;;
6475;SDS011;3271;51.910;5.840;2022-07-22T04:39:28;5.18;;;2.38;;
6475;SDS011;3271;51.910;5.840;2022-07-22T04:41:54;4.03;;;2.10;;
6475;SDS011;3271;51.910;5.840;2022-07-22T04:44:20;4.63;;;2.58;;
6475;SDS011;3271;51.910;5.840;2022-07-22T04:46:46;6.13;;;2.50;;
6475;SDS011;3271;51.910;5.840;2022-07-22T04:49:13;4.95;;;2.30;;
6475;SDS011;3271;51.910;5.840;2022-07-22T04:51:39;4.50;;;2.40;;
6475;SDS011;3271;51.910;5.840;2022-07-22T04:54:05;6.70;;;2.30;;
6475;SDS011;3271;51.910;5.840;2022-07-22T04:56:31;5.30;;;2.50;;
6475;SDS011;3271;51.910;5.840;2022-07-22T04:58:57;5.10;;;2.42;;
6475;SDS011;3271;51.910;5.840;2022-07-22T05:01:23;3.55;;;2.13;;
6475;SDS011;3271;51.910;5.840;2022-07-22T05:03:49;5.20;;;2.55;;
6475;SDS011;3271;51.910;5.840;2022-07-22T05:06:16;5.82;;;2.25;;
6475;SDS011;3271;51.910;5.840;2022-07-22T05:08:42;4.35;;;2.47;;
6475;SDS011;3271;51.910;5.840;2022-07-22T05:11:08;5.78;;;2.80;;
6475;SDS011;3271;51.910;5.840;2022-07-22T05:13:34;3.80;;;2.55;;
6475;SDS011;3271;51.910;5.840;2022-07-22T05:16:04;5.95;;;2.38;;
6475;SDS011;3271;51.910;5.840;2022-07-22T05:18:30;5.30;;;3.22;;
6475;SDS011;3271;51.910;5.840;2022-07-22T05:20:56;7.50;;;2.33;;
6475;SDS011;3271;51.910;5.840;2022-07-22T05:23:22;3.40;;;2.42;;
6475;SDS011;3271;51.910;5.840;2022-07-22T05:25:48;4.72;;;2.35;;
6475;SDS011;3271;51.910;5.840;2022-07-22T05:28:13;5.95;;;2.90;;
6475;SDS011;3271;51.910;5.840;2022-07-22T05:30:40;6.00;;;2.67;;
6475;SDS011;3271;51.910;5.840;2022-07-22T05:33:06;5.28;;;2.38;;
6475;SDS011;3271;51.910;5.840;2022-07-22T05:35:32;5.78;;;2.60;;
6475;SDS011;3271;51.910;5.840;2022-07-22T05:37:58;3.88;;;2.60;;
6475;SDS011;3271;51.910;5.840;2022-07-22T05:40:24;6.38;;;2.50;;
6475;SDS011;3271;51.910;5.840;2022-07-22T05:42:50;5.18;;;2.80;;
6475;SDS011;3271;51.910;5.840;2022-07-22T05:45:16;3.55;;;2.58;;
6475;SDS011;3271;51.910;5.840;2022-07-22T05:47:42;4.28;;;2.38;;
6475;SDS011;3271;51.910;5.840;2022-07-22T05:50:08;4.55;;;2.20;;
6475;SDS011;3271;51.910;5.840;2022-07-22T05:52:36;4.25;;;2.50;;
6475;SDS011;3271;51.910;5.840;2022-07-22T05:55:03;6.30;;;2.03;;
6475;SDS011;3271;51.910;5.840;2022-07-22T05:57:29;4.75;;;2.42;;
6475;SDS011;3271;51.910;5.840;2022-07-22T05:59:55;3.40;;;2.20;;
6475;SDS011;3271;51.910;5.840;2022-07-22T06:02:21;6.75;;;2.45;;
6475;SDS011;3271;51.910;5.840;2022-07-22T06:04:47;5.10;;;2.33;;
6475;SDS011;3271;51.910;5.840;2022-07-22T06:07:13;5.13;;;2.58;;
6475;SDS011;3271;51.910;5.840;2022-07-22T06:09:39;5.63;;;2.90;;
6475;SDS011;3271;51.910;5.840;2022-07-22T06:12:05;4.10;;;2.17;;
6475;SDS011;3271;51.910;5.840;2022-07-22T06:14:31;4.18;;;2.03;;
6475;SDS011;3271;51.910;5.840;2022-07-22T06:16:57;4.53;;;2.40;;
6475;SDS011;3271;51.910;5.840;2022-07-22T06:19:23;4.10;;;2.15;;
6475;SDS011;3271;51.910;5.840;2022-07-22T06:21:49;4.10;;;2.40;;
6475;SDS011;3271;51.910;5.840;2022-07-22T06:24:16;3.05;;;2.10;;
6475;SDS011;3271;51.910;5.840;2022-07-22T06:26:42;4.43;;;2.28;;
6475;SDS011;3271;51.910;5.840;2022-07-22T06:29:09;5.40;;;2.30;;
6475;SDS011;3271;51.910;5.840;2022-07-22T06:31:35;3.70;;;1.85;;
6475;SDS011;3271;51.910;5.840;2022-07-22T06:34:01;4.20;;;2.30;;
6475;SDS011;3271;51.910;5.840;2022-07-22T06:36:30;3.97;;;2.03;;
6475;SDS011;3271;51.910;5.840;2022-07-22T06:38:56;4.70;;;2.65;;
6475;SDS011;3271;51.910;5.840;2022-07-22T06:41:22;3.30;;;2.30;;
6475;SDS011;3271;51.910;5.840;2022-07-22T06:43:48;4.90;;;2.03;;
6475;SDS011;3271;51.910;5.840;2022-07-22T06:46:14;8.00;;;2.53;;
6475;SDS011;3271;51.910;5.840;2022-07-22T06:48:40;5.97;;;2.90;;
6475;SDS011;3271;51.910;5.840;2022-07-22T06:51:06;6.20;;;2.00;;
6475;SDS011;3271;51.910;5.840;2022-07-22T06:53:33;3.78;;;2.15;;
6475;SDS011;3271;51.910;5.840;2022-07-22T06:55:59;3.60;;;1.70;;
6475;SDS011;3271;51.910;5.840;2022-07-22T06:58:25;3.30;;;1.70;;
6475;SDS011;3271;51.910;5.840;2022-07-22T07:00:51;6.63;;;1.67;;
6475;SDS011;3271;51.910;5.840;2022-07-22T07:03:17;3.80;;;2.10;;
6475;SDS011;3271;51.910;5.840;2022-07-22T07:05:43;4.90;;;2.13;;
6475;SDS011;3271;51.910;5.840;2022-07-22T07:08:09;3.50;;;1.77;;
6475;SDS011;3271;51.910;5.840;2022-07-22T07:10:35;3.40;;;2.03;;
6475;SDS011;3271;51.910;5.840;2022-07-22T07:13:01;4.28;;;2.00;;
6475;SDS011;3271;51.910;5.840;2022-07-22T07:15:27;2.95;;;2.00;;
6475;SDS011;3271;51.910;5.840;2022-07-22T07:17:54;4.75;;;2.22;;
6475;SDS011;3271;51.910;5.840;2022-07-22T07:20:21;6.57;;;2.20;;
6475;SDS011;3271;51.910;5.840;2022-07-22T07:22:47;5.45;;;2.75;;
6475;SDS011;3271;51.910;5.840;2022-07-22T07:25:13;2.92;;;1.73;;
6475;SDS011;3271;51.910;5.840;2022-07-22T07:27:39;3.55;;;1.92;;
6475;SDS011;3271;51.910;5.840;2022-07-22T07:30:05;3.63;;;1.73;;
6475;SDS011;3271;51.910;5.840;2022-07-22T07:32:32;4.85;;;2.38;;
6475;SDS011;3271;51.910;5.840;2022-07-22T07:34:58;6.43;;;2.00;;
6475;SDS011;3271;51.910;5.840;2022-07-22T07:37:24;3.50;;;2.00;;
6475;SDS011;3271;51.910;5.840;2022-07-22T07:39:50;4.13;;;2.15;;
6475;SDS011;3271;51.910;5.840;2022-07-22T07:42:16;4.32;;;1.95;;
6475;SDS011;3271;51.910;5.840;2022-07-22T07:44:42;4.07;;;2.10;;
6475;SDS011;3271;51.910;5.840;2022-07-22T07:47:07;4.95;;;2.00;;
6475;SDS011;3271;51.910;5.840;2022-07-22T07:49:33;3.70;;;1.40;;
6475;SDS011;3271;51.910;5.840;2022-07-22T07:51:59;6.97;;;1.85;;
6475;SDS011;3271;51.910;5.840;2022-07-22T07:54:25;3.10;;;1.65;;
6475;SDS011;3271;51.910;5.840;2022-07-22T07:56:51;4.28;;;2.15;;
6475;SDS011;3271;51.910;5.840;2022-07-22T07:59:18;2.67;;;1.73;;
6475;SDS011;3271;51.910;5.840;2022-07-22T08:01:44;5.80;;;1.88;;
6475;SDS011;3271;51.910;5.840;2022-07-22T08:04:10;2.72;;;1.67;;
6475;SDS011;3271;51.910;5.840;2022-07-22T08:06:36;3.30;;;2.00;;
6475;SDS011;3271;51.910;5.840;2022-07-22T08:09:02;3.95;;;1.52;;
6475;SDS011;3271;51.910;5.840;2022-07-22T08:11:28;6.00;;;1.60;;
6475;SDS011;3271;51.910;5.840;2022-07-22T08:13:54;3.25;;;1.52;;
6475;SDS011;3271;51.910;5.840;2022-07-22T08:16:20;3.00;;;1.70;;
6475;SDS011;3271;51.910;5.840;2022-07-22T08:18:46;3.53;;;1.58;;
6475;SDS011;3271;51.910;5.840;2022-07-22T08:21:12;4.57;;;1.90;;
6475;SDS011;3271;51.910;5.840;2022-07-22T08:23:37;2.50;;;1.77;;
6475;SDS011;3271;51.910;5.840;2022-07-22T08:26:03;3.20;;;1.40;;
6475;SDS011;3271;51.910;5.840;2022-07-22T08:28:29;3.63;;;1.80;;
6475;SDS011;3271;51.910;5.840;2022-07-22T08:30:55;6.00;;;2.25;;
6475;SDS011;3271;51.910;5.840;2022-07-22T08:33:21;1.77;;;1.50;;
6475;SDS011;3271;51.910;5.840;2022-07-22T08:35:47;2.85;;;1.50;;
6475;SDS011;3271;51.910;5.840;2022-07-22T08:38:13;5.40;;;1.42;;
6475;SDS011;3271;51.910;5.840;2022-07-22T08:40:39;3.10;;;1.75;;
6475;SDS011;3271;51.910;5.840;2022-07-22T08:43:05;4.60;;;1.63;;
6475;SDS011;3271;51.910;5.840;2022-07-22T08:45:31;3.20;;;1.60;;
6475;SDS011;3271;51.910;5.840;2022-07-22T08:47:58;4.32;;;1.60;;
6475;SDS011;3271;51.910;5.840;2022-07-22T08:50:27;3.10;;;1.85;;
6475;SDS011;3271;51.910;5.840;2022-07-22T08:52:53;2.83;;;1.48;;
6475;SDS011;3271;51.910;5.840;2022-07-22T08:55:19;2.67;;;1.63;;
6475;SDS011;3271;51.910;5.840;2022-07-22T08:57:46;4.20;;;1.50;;
6475;SDS011;3271;51.910;5.840;2022-07-22T09:00:13;4.40;;;1.85;;
6475;SDS011;3271;51.910;5.840;2022-07-22T09:02:40;3.72;;;1.83;;
6475;SDS011;3271;51.910;5.840;2022-07-22T09:05:07;2.03;;;1.53;;
6475;SDS011;3271;51.910;5.840;2022-07-22T09:07:38;5.10;;;1.73;;
6475;SDS011;3271;51.910;5.840;2022-07-22T09:10:05;3.33;;;1.98;;
6475;SDS011;3271;51.910;5.840;2022-07-22T09:12:31;3.50;;;1.50;;
6475;SDS011;3271;51.910;5.840;2022-07-22T09:14:59;4.00;;;1.48;;
6475;SDS011;3271;51.910;5.840;2022-07-22T09:17:30;4.97;;;1.70;;
6475;SDS011;3271;51.910;5.840;2022-07-22T09:19:57;3.75;;;1.65;;
6475;SDS011;3271;51.910;5.840;2022-07-22T09:22:30;5.35;;;1.70;;
6475;SDS011;3271;51.910;5.840;2022-07-22T09:24:56;3.78;;;1.75;;
6475;SDS011;3271;51.910;5.840;2022-07-22T09:27:23;5.20;;;2.17;;
6475;SDS011;3271;51.910;5.840;2022-07-22T09:29:50;3.03;;;1.70;;
6475;SDS011;3271;51.910;5.840;2022-07-22T09:32:16;3.53;;;1.50;;
6475;SDS011;3271;51.910;5.840;2022-07-22T09:34:42;4.57;;;1.85;;
6475;SDS011;3271;51.910;5.840;2022-07-22T09:37:08;3.67;;;1.63;;
6475;SDS011;3271;51.910;5.840;2022-07-22T09:39:33;2.83;;;1.87;;
6475;SDS011;3271;51.910;5.840;2022-07-22T09:42:04;3.13;;;1.80;;
6475;SDS011;3271;51.910;5.840;2022-07-22T09:44:30;4.00;;;1.80;;
6475;SDS011;3271;51.910;5.840;2022-07-22T09:46:56;3.83;;;2.08;;
6475;SDS011;3271;51.910;5.840;2022-07-22T09:49:37;4.07;;;1.80;;
6475;SDS011;3271;51.910;5.840;2022-07-22T09:52:05;4.28;;;1.90;;
6475;SDS011;3271;51.910;5.840;2022-07-22T09:54:31;3.65;;;2.00;;
6475;SDS011;3271;51.910;5.840;2022-07-22T09:56:57;2.80;;;1.90;;
6475;SDS011;3271;51.910;5.840;2022-07-22T09:59:23;4.20;;;1.73;;
6475;SDS011;3271;51.910;5.840;2022-07-22T10:01:50;3.97;;;1.58;;
6475;SDS011;3271;51.910;5.840;2022-07-22T10:04:16;3.60;;;2.15;;
6475;SDS011;3271;51.910;5.840;2022-07-22T10:06:45;3.97;;;1.45;;
6475;SDS011;3271;51.910;5.840;2022-07-22T10:09:12;3.10;;;1.88;;
6475;SDS011;3271;51.910;5.840;2022-07-22T10:11:39;3.03;;;1.60;;
6475;SDS011;3271;51.910;5.840;2022-07-22T10:14:10;2.65;;;1.80;;
6475;SDS011;3271;51.910;5.840;2022-07-22T10:16:36;3.95;;;1.63;;
6475;SDS011;3271;51.910;5.840;2022-07-22T10:19:02;4.68;;;1.70;;
6475;SDS011;3271;51.910;5.840;2022-07-22T10:21:32;3.58;;;1.88;;
6475;SDS011;3271;51.910;5.840;2022-07-22T10:31:49;3.47;;;2.08;;
6475;SDS011;3271;51.910;5.840;2022-07-22T10:34:15;2.42;;;1.52;;
6475;SDS011;3271;51.910;5.840;2022-07-22T10:36:42;4.05;;;1.90;;
6475;SDS011;3271;51.910;5.840;2022-07-22T10:41:35;2.25;;;2.08;;
6475;SDS011;3271;51.910;5.840;2022-07-22T10:44:01;4.47;;;2.13;;
6475;SDS011;3271;51.910;5.840;2022-07-22T10:49:12;2.72;;;2.05;;
6475;SDS011;3271;51.910;5.840;2022-07-22T10:51:40;2.88;;;1.85;;
6475;SDS011;3271;51.910;5.840;2022-07-22T10:54:26;2.53;;;1.90;;
6475;SDS011;3271;51.910;5.840;2022-07-22T10:56:52;3.25;;;1.70;;
6475;SDS011;3271;51.910;5.840;2022-07-22T10:59:19;4.03;;;2.03;;
6475;SDS011;3271;51.910;5.840;2022-07-22T11:01:50;6.38;;;2.03;;
6475;SDS011;3271;51.910;5.840;2022-07-22T11:04:22;2.75;;;1.55;;
6475;SDS011;3271;51.910;5.840;2022-07-22T11:06:55;2.63;;;1.60;;
6475;SDS011;3271;51.910;5.840;2022-07-22T11:09:23;2.95;;;1.67;;
6475;SDS011;3271;51.910;5.840;2022-07-22T11:11:50;3.53;;;1.90;;
6475;SDS011;3271;51.910;5.840;2022-07-22T11:14:24;2.08;;;1.88;;
6475;SDS011;3271;51.910;5.840;2022-07-22T11:16:51;2.45;;;1.50;;
6475;SDS011;3271;51.910;5.840;2022-07-22T11:19:21;5.75;;;2.00;;
6475;SDS011;3271;51.910;5.840;2022-07-22T11:21:52;2.80;;;1.30;;
6475;SDS011;3271;51.910;5.840;2022-07-22T11:24:19;3.08;;;1.92;;
6475;SDS011;3271;51.910;5.840;2022-07-22T11:26:46;2.60;;;2.03;;
6475;SDS011;3271;51.910;5.840;2022-07-22T11:29:18;3.28;;;1.70;;
6475;SDS011;3271;51.910;5.840;2022-07-22T11:31:44;3.72;;;1.80;;
6475;SDS011;3271;51.910;5.840;2022-07-22T11:34:11;8.20;;;2.10;;
6475;SDS011;3271;51.910;5.840;2022-07-22T11:36:38;2.03;;;1.45;;
6475;SDS011;3271;51.910;5.840;2022-07-22T11:39:05;3.85;;;1.50;;
6475;SDS011;3271;51.910;5.840;2022-07-22T11:41:31;1.60;;;1.30;;
6475;SDS011;3271;51.910;5.840;2022-07-22T11:43:58;1.67;;;1.50;;
6475;SDS011;3271;51.910;5.840;2022-07-22T11:46:24;3.70;;;2.10;;
6475;SDS011;3271;51.910;5.840;2022-07-22T11:48:51;4.68;;;1.70;;
6475;SDS011;3271;51.910;5.840;2022-07-22T11:51:17;3.38;;;1.88;;
6475;SDS011;3271;51.910;5.840;2022-07-22T11:53:43;6.55;;;1.80;;
6475;SDS011;3271;51.910;5.840;2022-07-22T11:56:09;3.25;;;1.70;;
6475;SDS011;3271;51.910;5.840;2022-07-22T11:58:42;5.00;;;2.00;;
6475;SDS011;3271;51.910;5.840;2022-07-22T12:01:09;4.15;;;2.40;;
6475;SDS011;3271;51.910;5.840;2022-07-22T12:03:35;2.85;;;2.00;;
6475;SDS011;3271;51.910;5.840;2022-07-22T12:06:02;3.40;;;1.85;;
6475;SDS011;3271;51.910;5.840;2022-07-22T12:08:29;3.65;;;1.80;;
6475;SDS011;3271;51.910;5.840;2022-07-22T12:10:59;4.47;;;1.85;;
6475;SDS011;3271;51.910;5.840;2022-07-22T12:13:29;4.18;;;2.33;;
6475;SDS011;3271;51.910;5.840;2022-07-22T12:15:55;3.20;;;2.00;;
6475;SDS011;3271;51.910;5.840;2022-07-22T12:18:21;4.13;;;1.88;;
6475;SDS011;3271;51.910;5.840;2022-07-22T12:20:48;8.52;;;1.90;;
6475;SDS011;3271;51.910;5.840;2022-07-22T12:23:14;3.03;;;2.33;;
6475;SDS011;3271;51.910;5.840;2022-07-22T12:28:15;4.68;;;2.35;;
6475;SDS011;3271;51.910;5.840;2022-07-22T12:30:42;3.78;;;1.90;;
6475;SDS011;3271;51.910;5.840;2022-07-22T12:33:17;3.60;;;2.03;;
6475;SDS011;3271;51.910;5.840;2022-07-22T12:35:44;5.63;;;2.63;;
6475;SDS011;3271;51.910;5.840;2022-07-22T12:38:10;4.15;;;2.72;;
6475;SDS011;3271;51.910;5.840;2022-07-22T12:40:37;5.45;;;3.22;;
6475;SDS011;3271;51.910;5.840;2022-07-22T12:43:04;2.88;;;2.60;;
6475;SDS011;3271;51.910;5.840;2022-07-22T12:45:31;4.65;;;2.80;;
6475;SDS011;3271;51.910;5.840;2022-07-22T12:50:29;4.60;;;2.30;;
6475;SDS011;3271;51.910;5.840;2022-07-22T12:53:00;3.70;;;2.25;;
6475;SDS011;3271;51.910;5.840;2022-07-22T12:55:29;4.43;;;2.17;;
6475;SDS011;3271;51.910;5.840;2022-07-22T12:57:56;3.78;;;2.25;;
6475;SDS011;3271;51.910;5.840;2022-07-22T13:00:26;3.20;;;2.90;;
6475;SDS011;3271;51.910;5.840;2022-07-22T13:02:53;3.72;;;1.90;;
6475;SDS011;3271;51.910;5.840;2022-07-22T13:05:20;4.05;;;2.17;;
6475;SDS011;3271;51.910;5.840;2022-07-22T13:07:46;3.40;;;2.38;;
6475;SDS011;3271;51.910;5.840;2022-07-22T13:10:13;3.53;;;2.40;;
6475;SDS011;3271;51.910;5.840;2022-07-22T13:12:39;6.03;;;3.30;;
6475;SDS011;3271;51.910;5.840;2022-07-22T13:15:05;4.93;;;3.45;;
6475;SDS011;3271;51.910;5.840;2022-07-22T13:17:31;3.85;;;2.92;;
6475;SDS011;3271;51.910;5.840;2022-07-22T13:19:58;4.60;;;3.17;;
6475;SDS011;3271;51.910;5.840;2022-07-22T13:22:23;5.40;;;3.35;;
6475;SDS011;3271;51.910;5.840;2022-07-22T13:24:49;5.35;;;2.70;;
6475;SDS011;3271;51.910;5.840;2022-07-22T13:27:16;3.22;;;2.47;;
6475;SDS011;3271;51.910;5.840;2022-07-22T13:29:42;5.07;;;2.60;;
6475;SDS011;3271;51.910;5.840;2022-07-22T13:32:08;2.85;;;2.38;;
6475;SDS011;3271;51.910;5.840;2022-07-22T13:34:34;5.68;;;2.35;;
6475;SDS011;3271;51.910;5.840;2022-07-22T13:37:00;2.80;;;2.53;;
6475;SDS011;3271;51.910;5.840;2022-07-22T13:39:26;5.90;;;2.50;;
6475;SDS011;3271;51.910;5.840;2022-07-22T13:41:52;6.35;;;2.90;;
6475;SDS011;3271;51.910;5.840;2022-07-22T13:44:18;3.28;;;2.35;;
6475;SDS011;3271;51.910;5.840;2022-07-22T13:46:44;2.75;;;2.38;;
6475;SDS011;3271;51.910;5.840;2022-07-22T13:49:10;2.70;;;2.17;;
6475;SDS011;3271;51.910;5.840;2022-07-22T13:51:36;5.53;;;2.45;;
6475;SDS011;3271;51.910;5.840;2022-07-22T13:54:02;4.10;;;2.40;;
6475;SDS011;3271;51.910;5.840;2022-07-22T13:56:29;2.47;;;2.28;;
6475;SDS011;3271;51.910;5.840;2022-07-22T13:58:55;3.85;;;2.50;;
6475;SDS011;3271;51.910;5.840;2022-07-22T14:01:21;4.22;;;3.25;;
6475;SDS011;3271;51.910;5.840;2022-07-22T14:03:47;4.22;;;2.50;;
6475;SDS011;3271;51.910;5.840;2022-07-22T14:06:13;3.95;;;2.38;;
6475;SDS011;3271;51.910;5.840;2022-07-22T14:08:39;4.75;;;2.72;;
6475;SDS011;3271;51.910;5.840;2022-07-22T14:11:05;2.47;;;2.15;;
6475;SDS011;3271;51.910;5.840;2022-07-22T14:13:31;3.53;;;2.33;;
6475;SDS011;3271;51.910;5.840;2022-07-22T14:15:57;3.80;;;2.67;;
6475;SDS011;3271;51.910;5.840;2022-07-22T14:18:43;4.93;;;2.70;;
6475;SDS011;3271;51.910;5.840;2022-07-22T14:21:09;3.47;;;2.90;;
6475;SDS011;3271;51.910;5.840;2022-07-22T14:23:35;5.43;;;2.15;;
6475;SDS011;3271;51.910;5.840;2022-07-22T14:26:01;4.43;;;1.92;;
6475;SDS011;3271;51.910;5.840;2022-07-22T14:28:27;3.65;;;2.08;;
6475;SDS011;3271;51.910;5.840;2022-07-22T14:30:53;3.35;;;2.03;;
6475;SDS011;3271;51.910;5.840;2022-07-22T14:33:19;3.67;;;2.13;;
6475;SDS011;3271;51.910;5.840;2022-07-22T14:35:45;2.30;;;1.70;;
6475;SDS011;3271;51.910;5.840;2022-07-22T14:38:11;4.70;;;2.20;;
6475;SDS011;3271;51.910;5.840;2022-07-22T14:40:37;3.22;;;2.33;;
6475;SDS011;3271;51.910;5.840;2022-07-22T14:43:03;4.88;;;2.17;;
6475;SDS011;3271;51.910;5.840;2022-07-22T14:45:30;3.58;;;2.40;;
6475;SDS011;3271;51.910;5.840;2022-07-22T14:47:55;3.65;;;2.10;;
6475;SDS011;3271;51.910;5.840;2022-07-22T14:50:21;4.72;;;2.03;;
6475;SDS011;3271;51.910;5.840;2022-07-22T14:52:47;4.82;;;2.20;;
6475;SDS011;3271;51.910;5.840;2022-07-22T14:55:13;3.67;;;1.98;;
6475;SDS011;3271;51.910;5.840;2022-07-22T14:57:39;3.78;;;2.30;;
6475;SDS011;3271;51.910;5.840;2022-07-22T15:00:05;3.35;;;1.77;;
6475;SDS011;3271;51.910;5.840;2022-07-22T15:02:32;3.78;;;1.88;;
6475;SDS011;3271;51.910;5.840;2022-07-22T15:04:58;5.68;;;1.90;;
6475;SDS011;3271;51.910;5.840;2022-07-22T15:07:24;6.82;;;2.00;;
6475;SDS011;3271;51.910;5.840;2022-07-22T15:09:50;3.08;;;2.20;;
6475;SDS011;3271;51.910;5.840;2022-07-22T15:12:16;4.07;;;2.28;;
6475;SDS011;3271;51.910;5.840;2022-07-22T15:14:42;4.03;;;1.95;;
6475;SDS011;3271;51.910;5.840;2022-07-22T15:17:08;5.05;;;2.28;;
6475;SDS011;3271;51.910;5.840;2022-07-22T15:19:34;3.72;;;2.53;;
6475;SDS011;3271;51.910;5.840;2022-07-22T15:22:00;4.00;;;2.08;;
6475;SDS011;3271;51.910;5.840;2022-07-22T15:24:25;3.70;;;2.10;;
6475;SDS011;3271;51.910;5.840;2022-07-22T15:26:51;3.47;;;2.20;;
6475;SDS011;3271;51.910;5.840;2022-07-22T15:29:17;4.15;;;2.72;;
6475;SDS011;3271;51.910;5.840;2022-07-22T15:31:43;3.15;;;2.00;;
6475;SDS011;3271;51.910;5.840;2022-07-22T15:34:09;2.85;;;1.80;;
6475;SDS011;3271;51.910;5.840;2022-07-22T15:36:35;2.30;;;1.80;;
6475;SDS011;3271;51.910;5.840;2022-07-22T15:39:01;2.83;;;2.10;;
6475;SDS011;3271;51.910;5.840;2022-07-22T15:41:27;2.50;;;2.10;;
6475;SDS011;3271;51.910;5.840;2022-07-22T15:43:53;4.13;;;2.17;;
6475;SDS011;3271;51.910;5.840;2022-07-22T15:46:19;2.50;;;2.10;;
6475;SDS011;3271;51.910;5.840;2022-07-22T15:48:45;3.28;;;2.08;;